Time;durP1;ratioP1;P1;durP2;ratioP2;P2;SDS_P1;SDS_P2;PMS_P1;PMS_P2;Temp;Humidity;BMP_temperature;BMP_pressure;BME280_temperature;BME280_humidity;BME280_pressure;Samples;Min_cycle;Max_cycle;Signal;HPM_P1;HPM_P2
2021/06/09 00:00:56;;;;;;;;;7.25;7.25;;;;;21.36;44.13;101762.59;5106756;27;45273;-46
2021/06/09 00:03:21;;;;;;;;;7.00;5.75;;;;;21.29;44.25;101758.44;5106719;27;45341;-50
2021/06/09 00:05:47;;;;;;;;;7.50;6.75;;;;;21.26;43.90;101759.44;5106995;27;45457;-47
2021/06/09 00:08:14;;;;;;;;;6.50;6.50;;;;;21.24;44.62;101762.19;5106972;27;45488;-51
2021/06/09 00:10:40;;;;;;;;;7.50;7.50;;;;;21.22;44.54;101769.38;5106716;27;46011;-52
2021/06/09 00:13:06;;;;;;;;;7.50;7.50;;;;;21.22;44.02;101768.50;5106656;27;45340;-46
2021/06/09 00:15:32;;;;;;;;;6.00;6.00;;;;;21.13;44.30;101759.09;5105611;27;45349;-49
2021/06/09 00:17:57;;;;;;;;;6.50;5.75;;;;;21.14;44.51;101767.97;5106412;27;45479;-47
2021/06/09 00:20:25;;;;;;;;;6.50;6.50;;;;;21.10;44.43;101765.41;5106323;27;45323;-47
2021/06/09 00:22:51;;;;;;;;;9.00;7.25;;;;;21.07;44.10;101762.03;5088231;27;45249;-46
2021/06/09 00:25:18;;;;;;;;;4.00;4.00;;;;;21.08;44.06;101758.41;5088379;27;45217;-46
2021/06/09 00:27:50;;;;;;;;;5.75;5.75;;;;;21.05;44.56;101764.75;5113626;27;45311;-47
2021/06/09 00:30:26;;;;;;;;;6.00;6.00;;;;;21.02;44.40;101759.53;5113932;27;45711;-46
2021/06/09 00:32:51;;;;;;;;;8.25;7.75;;;;;20.99;44.86;101761.47;5127229;27;45304;-46
2021/06/09 00:35:16;;;;;;;;;7.00;7.00;;;;;20.94;44.61;101749.19;5126600;27;45255;-48
2021/06/09 00:37:42;;;;;;;;;7.00;7.00;;;;;20.96;44.64;101753.59;5123223;27;45415;-50
2021/06/09 00:40:09;;;;;;;;;6.75;6.75;;;;;20.95;44.56;101758.06;5123857;27;45265;-49
2021/06/09 00:42:36;;;;;;;;;6.00;5.75;;;;;20.91;45.11;101751.13;5102857;27;45495;-51
2021/06/09 00:45:03;;;;;;;;;7.25;7.25;;;;;20.89;45.08;101752.97;5103178;27;45323;-50
2021/06/09 00:47:28;;;;;;;;;7.00;7.00;;;;;20.87;44.98;101754.84;5102918;27;45391;-49
2021/06/09 00:49:54;;;;;;;;;7.75;6.00;;;;;20.83;45.24;101748.75;5102832;27;45555;-48
2021/06/09 00:52:24;;;;;;;;;6.50;6.50;;;;;20.78;44.72;101743.59;5101649;27;45315;-49
2021/06/09 00:54:51;;;;;;;;;5.50;5.50;;;;;20.80;45.16;101742.69;5103091;27;45363;-49
2021/06/09 00:57:18;;;;;;;;;6.00;6.00;;;;;20.71;45.29;101736.78;5102703;27;45556;-50
2021/06/09 00:59:43;;;;;;;;;10.50;7.75;;;;;20.71;45.36;101750.13;5102831;27;45402;-50
2021/06/09 01:02:09;;;;;;;;;6.75;6.00;;;;;20.68;45.35;101747.56;5102585;27;45347;-52
2021/06/09 01:04:34;;;;;;;;;5.50;5.50;;;;;20.65;45.64;101745.00;5084561;27;45267;-50
2021/06/09 01:07:02;;;;;;;;;6.75;6.75;;;;;20.62;45.59;101742.47;5102795;27;45225;-48
2021/06/09 01:09:27;;;;;;;;;8.00;7.00;;;;;20.58;45.62;101746.19;5102788;27;45335;-50
2021/06/09 01:11:54;;;;;;;;;10.25;9.25;;;;;20.55;45.44;101755.19;5102422;27;45308;-51
2021/06/09 01:14:20;;;;;;;;;7.75;7.75;;;;;20.54;46.09;101756.13;5102930;27;45223;-48
2021/06/09 01:16:47;;;;;;;;;7.25;5.75;;;;;20.51;45.88;101745.56;5101077;27;45346;-47
2021/06/09 01:19:14;;;;;;;;;9.50;7.75;;;;;20.48;46.13;101739.47;5101943;27;45319;-51
2021/06/09 01:21:40;;;;;;;;;9.00;8.25;;;;;20.44;46.22;101736.94;5102167;27;45313;-48
2021/06/09 01:24:05;;;;;;;;;6.00;6.00;;;;;20.40;46.27;101740.66;5102575;27;45625;-51
2021/06/09 01:26:31;;;;;;;;;7.50;7.50;;;;;20.38;45.98;101739.84;5102469;27;45389;-50
2021/06/09 01:28:58;;;;;;;;;7.25;7.00;;;;;20.36;46.11;101735.50;5112194;27;46990;-47
2021/06/09 01:31:25;;;;;;;;;8.00;8.00;;;;;20.34;46.21;101730.22;5123016;27;45185;-52
2021/06/09 01:33:51;;;;;;;;;7.50;7.50;;;;;20.32;45.91;101732.06;5122753;27;45326;-52
2021/06/09 01:36:16;;;;;;;;;6.50;6.50;;;;;20.29;46.11;101732.22;5122730;27;45894;-49
2021/06/09 01:38:42;;;;;;;;;10.00;8.00;;;;;20.22;46.42;101733.38;5122792;27;45453;-49
2021/06/09 01:41:07;;;;;;;;;7.00;7.00;;;;;20.18;45.87;101723.75;5122745;27;45368;-50
2021/06/09 01:43:34;;;;;;;;;9.25;8.25;;;;;20.20;46.39;101735.22;5113317;27;45467;-49
2021/06/09 01:46:00;;;;;;;;;6.00;6.00;;;;;20.17;45.97;101733.53;5101958;27;45311;-46
2021/06/09 01:48:25;;;;;;;;;8.00;6.50;;;;;20.16;46.17;101731.81;5100515;27;45251;-51
2021/06/09 01:50:51;;;;;;;;;8.25;8.25;;;;;20.13;46.24;101735.47;5101892;27;45164;-49
2021/06/09 01:53:16;;;;;;;;;9.75;8.25;;;;;20.12;46.15;101733.75;5102219;27;45359;-52
2021/06/09 01:55:42;;;;;;;;;7.00;5.75;;;;;20.09;46.31;101735.66;5101900;27;45208;-51
2021/06/09 01:58:11;;;;;;;;;9.00;9.00;;;;;20.08;46.04;101725.91;5101871;27;46199;-53
2021/06/09 02:00:45;;;;;;;;;10.25;9.00;;;;;20.05;46.17;101734.91;5101953;27;45452;-46
2021/06/09 02:03:15;;;;;;;;;8.75;6.75;;;;;20.02;46.41;101734.16;5101844;27;45410;-47
2021/06/09 02:05:41;;;;;;;;;7.50;7.50;;;;;20.00;46.33;101736.00;5101569;27;45617;-47
2021/06/09 02:08:09;;;;;;;;;6.25;6.00;;;;;20.01;46.41;101730.59;5083541;27;46207;-47
2021/06/09 02:10:36;;;;;;;;;6.00;6.00;;;;;19.98;46.63;101736.06;5066436;27;45802;-46
2021/06/09 02:13:06;;;;;;;;;8.25;8.25;;;;;19.95;46.64;101734.38;5101735;27;45414;-48
2021/06/09 02:15:32;;;;;;;;;5.25;5.25;;;;;19.89;46.71;101723.09;5101538;27;45220;-46
2021/06/09 02:18:16;;;;;;;;;6.00;6.00;;;;;19.92;46.56;101730.94;5101328;27;45410;-46
2021/06/09 02:20:42;;;;;;;;;7.75;7.75;;;;;19.88;46.42;101732.88;5101720;27;45235;-46
2021/06/09 02:23:11;;;;;;;;;10.75;9.25;;;;;19.86;46.68;101731.19;5101514;27;45287;-46
2021/06/09 02:25:41;;;;;;;;;7.75;7.75;;;;;19.85;46.79;101727.66;5101736;27;45244;-48
2021/06/09 02:28:07;;;;;;;;;8.25;8.25;;;;;19.84;46.75;101730.38;5114156;27;46154;-46
2021/06/09 02:30:32;;;;;;;;;7.25;7.25;;;;;19.80;46.68;101721.59;5122114;27;45262;-46
2021/06/09 02:32:58;;;;;;;;;8.75;7.75;;;;;19.77;46.93;101719.03;5122180;27;45240;-46
2021/06/09 02:35:25;;;;;;;;;7.00;7.00;;;;;19.77;46.98;101724.34;5121998;27;45515;-46
2021/06/09 02:37:53;;;;;;;;;7.50;7.25;;;;;19.76;46.78;101733.28;5121742;27;46189;-46
2021/06/09 02:40:20;;;;;;;;;6.00;6.00;;;;;19.74;47.00;101725.34;5122019;27;45429;-46
2021/06/09 02:42:46;;;;;;;;;8.00;8.00;;;;;19.71;46.91;101722.81;5118343;27;45317;-47
2021/06/09 02:45:18;;;;;;;;;8.00;6.75;;;;;19.69;47.09;101727.31;5101096;27;45399;-48
2021/06/09 02:47:51;;;;;;;;;8.00;7.50;;;;;19.64;47.13;101723.94;5082540;27;47230;-48
2021/06/09 02:50:18;;;;;;;;;7.75;6.75;;;;;19.63;47.08;101731.09;5100994;27;45385;-48
2021/06/09 02:53:03;;;;;;;;;7.25;7.25;;;;;19.59;47.19;101732.09;5101038;27;45455;-47
2021/06/09 02:56:09;;;;;;;;;6.25;6.25;;;;;19.58;47.26;101732.16;5100966;27;45545;-50
2021/06/09 02:59:12;;;;;;;;;9.00;8.00;;;;;19.56;47.41;101720.69;5100354;27;46317;-48
2021/06/09 03:01:45;;;;;;;;;7.50;7.00;;;;;19.51;47.37;101728.88;5082532;27;45347;-49
2021/06/09 03:04:16;;;;;;;;;6.75;6.75;;;;;19.52;47.52;101732.41;5100658;27;45348;-47
2021/06/09 03:06:52;;;;;;;;;7.25;7.25;;;;;19.51;47.53;101726.22;5100951;27;45406;-48
2021/06/09 03:09:41;;;;;;;;;12.00;10.00;;;;;19.49;47.33;101726.22;5100706;27;46374;-50
2021/06/09 03:12:23;;;;;;;;;9.75;9.75;;;;;19.46;47.49;101726.34;5100371;27;45339;-47
2021/06/09 03:15:10;;;;;;;;;10.00;8.25;;;;;19.46;46.97;101721.03;5100828;27;45220;-50
2021/06/09 03:18:05;;;;;;;;;26.75;23.50;;;;;19.47;47.39;101728.09;5100660;27;45277;-49
2021/06/09 03:20:46;;;;;;;;;20.00;15.00;;;;;19.45;47.74;101727.28;5065685;27;47484;-51
2021/06/09 03:23:16;;;;;;;;;11.00;11.00;;;;;19.45;47.67;101731.75;5121158;27;45476;-50
2021/06/09 03:25:52;;;;;;;;;13.25;13.25;;;;;19.44;47.84;101727.34;5121434;27;45478;-50
2021/06/09 03:28:40;;;;;;;;;8.75;8.50;;;;;19.44;47.83;101733.53;5102397;27;45748;-48
2021/06/09 03:31:09;;;;;;;;;14.75;12.25;;;;;19.44;47.95;101732.66;5121019;27;45530;-47
2021/06/09 03:33:42;;;;;;;;;10.00;9.25;;;;;19.44;47.77;101732.66;5121046;27;45302;-55
2021/06/09 03:36:29;;;;;;;;;9.00;9.00;;;;;19.43;47.79;101736.25;5121088;27;45281;-49
2021/06/09 03:39:08;;;;;;;;;11.00;11.00;;;;;19.37;47.53;101725.81;5121264;27;45601;-48
2021/06/09 03:41:42;;;;;;;;;10.00;9.00;;;;;19.40;48.10;101733.72;5120980;27;45318;-51
2021/06/09 03:44:10;;;;;;;;;8.50;8.50;;;;;19.38;48.03;101736.41;5105902;27;45329;-49
2021/06/09 03:46:38;;;;;;;;;12.25;12.25;;;;;19.35;48.23;101735.69;5082108;27;45359;-46
2021/06/09 03:49:09;;;;;;;;;12.50;10.00;;;;;19.34;47.96;101734.78;5099974;27;45423;-48
2021/06/09 03:51:38;;;;;;;;;11.75;11.75;;;;;19.36;47.90;101729.41;5100243;27;46196;-49
2021/06/09 03:54:05;;;;;;;;;11.50;11.00;;;;;19.35;48.03;101733.88;5100141;27;45443;-50
2021/06/09 03:56:32;;;;;;;;;12.75;11.75;;;;;19.34;47.98;101732.13;5100412;27;45374;-49
2021/06/09 03:58:59;;;;;;;;;15.00;14.00;;;;;19.33;48.37;101733.03;5099927;27;45426;-50
2021/06/09 04:01:30;;;;;;;;;13.00;9.75;;;;;19.21;48.08;101712.19;5100087;27;45506;-47
2021/06/09 04:03:58;;;;;;;;;14.00;12.25;;;;;19.30;48.36;101730.50;5081275;27;45534;-52
2021/06/09 04:06:25;;;;;;;;;13.25;12.00;;;;;19.34;48.87;101729.47;5100263;27;45447;-46
2021/06/09 04:08:53;;;;;;;;;13.75;12.00;;;;;19.32;48.14;101723.34;5099996;27;45278;-49
2021/06/09 04:11:20;;;;;;;;;11.50;11.50;;;;;19.32;48.36;101720.66;5100913;27;46188;-51
2021/06/09 04:13:47;;;;;;;;;14.50;14.00;;;;;19.38;48.52;101728.41;5085153;27;45359;-51
2021/06/09 04:16:14;;;;;;;;;13.00;13.00;;;;;19.40;48.44;101729.25;5103584;27;45491;-48
2021/06/09 04:18:44;;;;;;;;;14.25;14.00;;;;;19.41;48.67;101722.13;5103020;27;45246;-49
2021/06/09 04:21:11;;;;;;;;;15.00;14.25;;;;;19.47;48.42;101727.22;5103380;27;46393;-46
2021/06/09 04:23:37;;;;;;;;;12.50;12.00;;;;;19.51;48.46;101738.66;5103420;27;45466;-48
2021/06/09 04:26:05;;;;;;;;;14.25;13.75;;;;;19.53;48.19;101735.00;5103385;27;45389;-49
2021/06/09 04:28:31;;;;;;;;;15.25;14.75;;;;;19.56;48.50;101731.34;5109111;27;45415;-47
2021/06/09 04:30:57;;;;;;;;;14.75;12.25;;;;;19.56;48.58;101732.25;5123740;27;45326;-47
2021/06/09 04:33:30;;;;;;;;;16.50;16.00;;;;;19.59;48.04;101728.59;5105260;27;45232;-48
2021/06/09 04:35:56;;;;;;;;;20.00;18.25;;;;;19.60;48.59;101731.19;5124009;27;45176;-49
2021/06/09 04:38:22;;;;;;;;;22.00;20.50;;;;;19.62;48.82;101736.47;5123855;27;45247;-47
2021/06/09 04:40:50;;;;;;;;;22.50;21.25;;;;;19.65;48.65;101734.56;5105162;27;46767;-47
2021/06/09 04:43:15;;;;;;;;;19.25;18.00;;;;;19.68;48.18;101741.56;5116014;27;45350;-47
2021/06/09 04:45:41;;;;;;;;;28.00;20.00;;;;;19.71;48.27;101740.59;5102943;27;45315;-49
2021/06/09 04:48:18;;;;;;;;;19.25;15.75;;;;;19.72;48.81;101737.88;5084528;27;45478;-47
2021/06/09 04:50:49;;;;;;;;;29.75;24.50;;;;;19.74;48.59;101736.00;5084870;27;47295;-49
2021/06/09 04:53:16;;;;;;;;;20.75;20.75;;;;;19.74;48.82;101730.69;5102796;27;45252;-49
2021/06/09 04:55:42;;;;;;;;;21.75;19.75;;;;;19.81;48.63;101742.00;5102864;27;45449;-48
2021/06/09 04:58:09;;;;;;;;;26.50;20.75;;;;;19.84;48.46;101744.59;5102970;27;45285;-47
2021/06/09 05:00:34;;;;;;;;;28.50;24.75;;;;;19.87;48.50;101749.78;5101399;27;47084;-46
2021/06/09 05:03:01;;;;;;;;;28.50;26.00;;;;;19.87;48.88;101744.44;5102655;27;45343;-47
2021/06/09 05:05:26;;;;;;;;;27.50;25.75;;;;;19.90;48.70;101744.34;5102639;27;45185;-49
2021/06/09 05:07:51;;;;;;;;;29.50;26.75;;;;;19.94;48.50;101750.44;5102747;27;45200;-47
2021/06/09 05:10:17;;;;;;;;;26.00;25.75;;;;;19.93;48.35;101748.69;5084333;27;47032;-48
2021/06/09 05:12:51;;;;;;;;;28.00;25.00;;;;;19.93;48.31;101740.69;5102500;27;45307;-48
2021/06/09 05:15:17;;;;;;;;;26.00;24.00;;;;;19.99;48.43;101751.13;5102686;27;45223;-51
2021/06/09 05:17:48;;;;;;;;;24.50;21.25;;;;;20.01;48.21;101751.06;5102343;27;45334;-52
2021/06/09 05:20:24;;;;;;;;;24.75;22.75;;;;;20.06;47.98;101754.44;5102053;27;45400;-51
2021/06/09 05:23:08;;;;;;;;;25.50;22.75;;;;;20.06;47.95;101752.66;5101754;27;45321;-54
2021/06/09 05:25:35;;;;;;;;;19.25;17.75;;;;;20.09;47.92;101757.00;5103524;27;45455;-52
2021/06/09 05:28:02;;;;;;;;;18.75;17.75;;;;;20.12;48.20;101755.09;5119728;27;45488;-53
2021/06/09 05:30:30;;;;;;;;;19.75;17.50;;;;;20.12;48.07;101751.53;5117279;27;46814;-52
2021/06/09 05:32:57;;;;;;;;;24.00;19.50;;;;;20.16;48.52;101758.47;5108210;27;45303;-55
2021/06/09 05:35:25;;;;;;;;;24.50;22.00;;;;;20.19;47.74;101755.72;5122886;27;45334;-55
2021/06/09 05:37:52;;;;;;;;;22.50;20.50;;;;;20.24;48.03;101760.88;5122119;27;45310;-52
2021/06/09 05:40:20;;;;;;;;;21.00;19.25;;;;;20.28;47.56;101762.50;5114696;27;45226;-48
2021/06/09 05:42:47;;;;;;;;;23.75;19.25;;;;;20.31;47.88;101754.34;5113285;27;45467;-52
2021/06/09 05:45:13;;;;;;;;;29.50;24.75;;;;;20.35;47.72;101752.44;5122534;27;45301;-56
2021/06/09 05:47:43;;;;;;;;;29.50;27.00;;;;;20.39;48.03;101762.06;5103837;27;45435;-56
2021/06/09 05:50:18;;;;;;;;;24.75;22.00;;;;;20.44;47.73;101766.31;5121890;27;45402;-55
2021/06/09 05:52:45;;;;;;;;;21.50;18.50;;;;;20.46;47.95;101755.56;5110204;27;45363;-55
2021/06/09 05:55:19;;;;;;;;;21.25;18.75;;;;;20.51;47.70;101758.91;5102783;27;45544;-56
2021/06/09 05:57:45;;;;;;;;;23.75;19.75;;;;;20.58;47.78;101760.41;5111340;27;45491;-54
2021/06/09 06:00:13;;;;;;;;;19.75;16.00;;;;;20.63;47.91;101755.75;5108109;27;46114;-55
2021/06/09 06:02:38;;;;;;;;;22.25;20.25;;;;;20.68;47.06;101752.91;5121983;27;45261;-54
2021/06/09 06:05:08;;;;;;;;;23.00;19.50;;;;;20.75;47.46;101759.78;5103873;27;45365;-56
2021/06/09 06:07:35;;;;;;;;;24.25;18.00;;;;;20.81;47.60;101755.97;5121909;27;45430;-55
2021/06/09 06:10:04;;;;;;;;;19.25;17.50;;;;;20.85;47.37;101756.72;5103365;27;47171;-58
2021/06/09 06:12:30;;;;;;;;;22.50;20.75;;;;;20.92;47.10;101752.84;5121504;27;45321;-56
2021/06/09 06:14:55;;;;;;;;;23.50;23.50;;;;;20.97;47.16;101757.97;5122501;27;45282;-62
2021/06/09 06:17:21;;;;;;;;;22.00;20.75;;;;;21.02;47.05;101758.66;5121553;27;45288;-60
2021/06/09 06:19:49;;;;;;;;;22.75;21.75;;;;;21.07;47.36;101762.03;5121811;27;46177;-60
2021/06/09 06:22:16;;;;;;;;;26.50;25.25;;;;;21.07;46.96;101759.34;5121156;27;45445;-59
2021/06/09 06:24:51;;;;;;;;;20.25;18.50;;;;;21.17;46.72;101763.38;5101342;27;45287;-59
2021/06/09 06:27:19;;;;;;;;;22.75;22.50;;;;;21.20;47.18;101763.22;5121729;27;45713;-60
2021/06/09 06:29:45;;;;;;;;;21.25;20.00;;;;;21.25;46.59;101763.91;5110114;27;45339;-60
2021/06/09 06:32:13;;;;;;;;;21.50;19.75;;;;;21.26;46.72;101760.28;5093567;27;45634;-59
2021/06/09 06:34:46;;;;;;;;;22.00;21.50;;;;;21.29;46.50;101764.63;5118353;27;45311;-60
2021/06/09 06:37:13;;;;;;;;;28.75;26.50;;;;;21.33;47.04;101760.88;5112953;27;45362;-59
2021/06/09 06:39:41;;;;;;;;;26.75;24.50;;;;;21.29;46.70;101751.28;5125963;27;46118;-60
2021/06/09 06:42:07;;;;;;;;;25.00;23.50;;;;;21.34;47.06;101762.63;5121632;27;45315;-59
2021/06/09 06:44:34;;;;;;;;;24.75;21.25;;;;;21.37;46.91;101758.94;5121663;27;45379;-59
2021/06/09 06:47:01;;;;;;;;;29.25;26.75;;;;;21.34;46.31;101751.94;5110657;27;45320;-59
2021/06/09 06:49:28;;;;;;;;;32.00;28.00;;;;;21.41;47.00;101772.13;5102770;27;48648;-59
2021/06/09 06:51:54;;;;;;;;;33.75;31.25;;;;;21.45;46.80;101764.84;5121441;27;45375;-58
2021/06/09 06:54:20;;;;;;;;;27.50;24.75;;;;;21.49;46.61;101760.22;5121204;27;45401;-58
2021/06/09 06:56:49;;;;;;;;;29.75;27.50;;;;;21.52;46.50;101768.09;5102673;27;45443;-58
2021/06/09 06:59:16;;;;;;;;;31.50;28.25;;;;;21.53;46.48;101769.84;5119609;27;45358;-59
2021/06/09 07:01:42;;;;;;;;;29.00;28.25;;;;;21.53;46.84;101772.53;5121080;27;45460;-59
2021/06/09 07:04:08;;;;;;;;;26.50;24.00;;;;;21.52;47.22;101773.47;5121355;27;45270;-59
2021/06/09 07:06:34;;;;;;;;;30.50;28.25;;;;;21.56;46.55;101775.13;5121158;27;45294;-59
2021/06/09 07:09:01;;;;;;;;;35.00;32.50;;;;;21.62;46.38;101771.28;5121171;27;46177;-59
2021/06/09 07:11:27;;;;;;;;;31.50;29.75;;;;;21.65;46.95;101765.81;5102634;27;45358;-58
2021/06/09 07:13:56;;;;;;;;;39.00;34.00;;;;;21.70;46.12;101770.00;5108073;27;45258;-58
2021/06/09 07:16:28;;;;;;;;;32.25;29.75;;;;;21.77;46.24;101772.41;5106015;27;45374;-59
2021/06/09 07:18:54;;;;;;;;;29.50;28.25;;;;;21.85;46.82;101770.25;5113884;27;47119;-59
2021/06/09 07:21:22;;;;;;;;;37.75;33.00;;;;;21.90;46.48;101770.91;5103028;27;45350;-59
2021/06/09 07:23:48;;;;;;;;;37.50;32.00;;;;;21.92;46.33;101767.22;5109894;27;45303;-59
2021/06/09 07:26:14;;;;;;;;;34.50;31.75;;;;;21.97;46.30;101769.69;5102345;27;45460;-59
2021/06/09 07:28:45;;;;;;;;;40.75;33.75;;;;;22.02;46.29;101767.66;5120499;27;46277;-59
2021/06/09 07:31:12;;;;;;;;;37.50;33.00;;;;;22.09;45.96;101765.59;5127143;27;45251;-58
2021/06/09 07:33:38;;;;;;;;;32.75;31.25;;;;;22.18;46.22;101775.00;5104430;27;45156;-59
2021/06/09 07:36:06;;;;;;;;;40.75;35.50;;;;;22.27;45.72;101779.91;5104080;27;45229;-58
2021/06/09 07:38:38;;;;;;;;;39.50;35.00;;;;;22.34;45.98;101769.75;5103432;27;45380;-59
2021/06/09 07:41:05;;;;;;;;;38.00;33.00;;;;;22.42;45.95;101777.50;5086999;27;45449;-59
2021/06/09 07:43:37;;;;;;;;;38.50;34.25;;;;;22.49;45.52;101762.84;5084733;27;45485;-59
2021/06/09 07:46:08;;;;;;;;;39.75;34.50;;;;;22.59;45.23;101774.88;5107511;27;45477;-59
2021/06/09 07:48:35;;;;;;;;;40.75;35.25;;;;;22.64;45.02;101770.16;5095331;27;45411;-60
2021/06/09 07:51:06;;;;;;;;;40.50;34.50;;;;;22.71;45.08;101768.88;5109440;27;45540;-59
2021/06/09 07:53:33;;;;;;;;;35.75;32.50;;;;;22.78;45.46;101766.78;5106589;27;45387;-59
2021/06/09 07:55:59;;;;;;;;;36.50;32.00;;;;;22.83;45.22;101763.84;5109098;27;45327;-59
2021/06/09 07:58:28;;;;;;;;;33.25;31.00;;;;;22.99;45.39;101770.22;5116455;27;46341;-59
2021/06/09 08:00:57;;;;;;;;;35.75;32.25;;;;;23.05;45.04;101764.50;5109254;27;45450;-60
2021/06/09 08:03:28;;;;;;;;;29.50;29.00;;;;;23.19;44.19;101771.91;5127782;27;45364;-59
2021/06/09 08:05:56;;;;;;;;;30.00;29.75;;;;;23.28;44.54;101769.69;5127470;27;45327;-60
2021/06/09 08:08:22;;;;;;;;;32.50;30.00;;;;;23.37;43.94;101774.59;5107717;27;47382;-60
2021/06/09 08:10:47;;;;;;;;;33.25;29.00;;;;;23.45;44.11;101777.72;5088523;27;45329;-59
2021/06/09 08:13:13;;;;;;;;;28.50;26.00;;;;;23.53;44.00;101766.59;5089250;27;45326;-59
2021/06/09 08:15:40;;;;;;;;;27.25;25.75;;;;;23.62;44.15;101770.59;5116937;27;45383;-60
2021/06/09 08:18:08;;;;;;;;;22.00;21.25;;;;;23.69;43.36;101772.00;5083012;27;48411;-59
2021/06/09 08:20:43;;;;;;;;;22.75;21.75;;;;;23.74;43.16;101780.69;5113196;27;45330;-60
2021/06/09 08:23:08;;;;;;;;;24.50;23.50;;;;;23.79;43.20;101778.59;5123899;27;45429;-60
2021/06/09 08:25:34;;;;;;;;;21.50;20.00;;;;;23.84;42.99;101771.16;5123542;27;45374;-58
2021/06/09 08:28:01;;;;;;;;;19.50;18.50;;;;;23.88;42.60;101773.72;5121815;27;45358;-59
2021/06/09 08:30:27;;;;;;;;;17.00;15.75;;;;;23.95;42.76;101773.31;5122534;27;45349;-60
2021/06/09 08:32:52;;;;;;;;;19.25;17.75;;;;;23.99;42.49;101765.97;5123308;27;45653;-59
2021/06/09 08:35:18;;;;;;;;;17.75;17.75;;;;;24.07;42.54;101774.44;5105065;27;45756;-60
2021/06/09 08:37:43;;;;;;;;;21.00;18.00;;;;;24.13;42.48;101767.88;5123326;27;46068;-60
2021/06/09 08:40:10;;;;;;;;;25.25;22.75;;;;;24.18;42.11;101765.81;5123491;27;45368;-59
2021/06/09 08:42:38;;;;;;;;;21.75;19.25;;;;;24.24;42.22;101768.16;5123584;27;45481;-60
2021/06/09 08:45:07;;;;;;;;;15.00;13.50;;;;;24.29;42.04;101765.22;5104814;27;45295;-60
2021/06/09 08:47:35;;;;;;;;;15.00;14.50;;;;;24.41;41.84;101763.66;5123248;27;46339;-60
2021/06/09 08:50:06;;;;;;;;;15.00;15.00;;;;;24.48;41.38;101762.34;5113029;27;45428;-60
2021/06/09 08:52:32;;;;;;;;;16.25;16.25;;;;;24.55;41.46;101755.66;5123218;27;45528;-59
2021/06/09 08:54:59;;;;;;;;;14.75;13.25;;;;;24.61;41.24;101760.69;5087921;27;45902;-60
2021/06/09 08:57:27;;;;;;;;;17.00;16.00;;;;;24.71;41.10;101765.56;5130533;27;45555;-60
2021/06/09 08:59:52;;;;;;;;;15.00;14.00;;;;;24.75;40.32;101762.59;5123322;27;45230;-59
2021/06/09 09:02:17;;;;;;;;;20.50;17.50;;;;;24.83;40.09;101764.88;5128107;27;45230;-59
2021/06/09 09:04:43;;;;;;;;;15.50;14.50;;;;;24.85;39.82;101762.94;5114796;27;45310;-60
2021/06/09 09:07:09;;;;;;;;;15.25;15.25;;;;;24.91;39.87;101756.34;5104502;27;46104;-60
2021/06/09 09:09:36;;;;;;;;;17.25;14.50;;;;;24.98;39.64;101771.13;5123329;27;45310;-60
2021/06/09 09:12:02;;;;;;;;;15.00;12.50;;;;;25.02;38.72;101764.63;5122780;27;45275;-60
2021/06/09 09:14:28;;;;;;;;;14.75;14.00;;;;;25.11;38.51;101771.28;5124622;27;45410;-59
2021/06/09 09:17:10;;;;;;;;;14.75;13.25;;;;;25.20;38.33;101768.03;5122661;27;46449;-59
2021/06/09 09:19:42;;;;;;;;;10.75;10.75;;;;;25.26;37.33;101770.38;5122845;27;45365;-59
2021/06/09 09:22:18;;;;;;;;;26.50;25.25;;;;;25.38;37.28;101776.00;5120623;27;45406;-59
2021/06/09 09:24:47;;;;;;;;;11.50;10.00;;;;;25.43;37.36;101774.78;5108757;27;45826;-59
2021/06/09 09:27:27;;;;;;;;;68.67;54.67;;;;;25.56;37.57;101774.88;5131947;27;47174;-59
2021/06/09 09:30:01;;;;;;;;;9.50;9.25;;;;;25.70;37.29;101779.41;5108930;27;45294;-59
2021/06/09 09:32:27;;;;;;;;;30.75;29.75;;;;;25.80;35.96;101785.94;5122525;27;45376;-60
2021/06/09 09:35:05;;;;;;;;;31.50;28.25;;;;;25.85;35.53;101782.97;5122469;27;45182;-59
2021/06/09 09:37:32;;;;;;;;;70.67;58.00;;;;;25.94;35.18;101782.38;5122362;27;46494;-60
2021/06/09 09:40:15;;;;;;;;;145.50;133.75;;;;;26.05;35.45;101792.50;5122743;27;45337;-60
2021/06/09 09:42:42;;;;;;;;;15.25;14.50;;;;;26.14;35.13;101795.56;5122654;27;45595;-60
2021/06/09 09:45:32;;;;;;;;;42.50;36.00;;;;;26.27;35.10;101786.59;5111743;27;45341;-59
2021/06/09 09:48:03;;;;;;;;;10.75;10.75;;;;;26.41;35.19;101784.84;5122193;27;47075;-59
2021/06/09 09:50:33;;;;;;;;;47.50;37.00;;;;;26.54;34.43;101787.59;5122421;27;45303;-60
2021/06/09 09:52:58;;;;;;;;;10.25;10.00;;;;;26.63;34.40;101789.72;5127485;27;45413;-60
2021/06/09 09:55:24;;;;;;;;;10.00;8.00;;;;;26.76;33.25;101787.94;5095924;27;45695;-60
2021/06/09 09:57:49;;;;;;;;;10.00;10.00;;;;;26.84;34.07;101787.47;5121954;27;45219;-59
2021/06/09 10:00:32;;;;;;;;;6.25;6.25;;;;;27.01;33.92;101786.31;5103911;27;45417;-60
2021/06/09 10:03:14;;;;;;;;;6.25;6.25;;;;;27.12;33.07;101774.81;5112189;27;45240;-58
2021/06/09 10:05:40;;;;;;;;;10.00;8.00;;;;;27.14;32.07;101772.84;5121987;27;45547;-59
2021/06/09 10:08:06;;;;;;;;;7.75;6.25;;;;;27.21;32.79;101770.63;5121412;27;46342;-58
2021/06/09 10:10:32;;;;;;;;;6.00;6.00;;;;;27.33;32.89;101782.38;5102941;27;45331;-59
2021/06/09 10:13:12;;;;;;;;;4.00;4.00;;;;;27.41;32.87;101770.13;5122217;27;45302;-58
2021/06/09 10:15:50;;;;;;;;;7.50;7.00;;;;;27.55;32.08;101779.09;5128792;27;45413;-58
2021/06/09 10:18:25;;;;;;;;;7.50;7.50;;;;;27.61;31.94;101773.25;5112057;27;45494;-58
2021/06/09 10:20:52;;;;;;;;;9.00;7.00;;;;;27.72;31.23;101777.88;5127976;27;45409;-59
2021/06/09 10:23:37;;;;;;;;;6.00;6.00;;;;;27.88;31.49;101781.22;5109227;27;45257;-59
2021/06/09 10:26:10;;;;;;;;;5.50;5.50;;;;;28.08;31.62;101783.50;5111014;27;45347;-59
2021/06/09 10:28:59;;;;;;;;;5.00;5.00;;;;;28.27;30.45;101780.31;5114665;27;47207;-59
2021/06/09 10:31:26;;;;;;;;;4.50;4.50;;;;;28.49;30.43;101776.88;5108620;27;45164;-60
2021/06/09 10:33:52;;;;;;;;;7.50;6.00;;;;;28.84;29.88;101782.41;5114229;27;45373;-58
2021/06/09 10:36:18;;;;;;;;;7.00;7.00;;;;;29.92;30.17;101772.34;5101199;27;45538;-57
2021/06/09 10:38:45;;;;;;;;;7.50;6.00;;;;;33.52;28.60;101776.19;5101434;27;45261;-58
2021/06/09 10:41:13;;;;;;;;;6.25;5.00;;;;;37.67;24.54;101782.09;5101286;27;45298;-58
2021/06/09 10:43:40;;;;;;;;;5.00;5.00;;;;;41.05;21.95;101786.13;5101154;27;45264;-59
2021/06/09 10:46:07;;;;;;;;;7.50;7.50;;;;;44.16;18.77;101779.00;5082628;27;45495;-57
2021/06/09 10:48:35;;;;;;;;;6.50;6.50;;;;;46.53;16.70;101774.44;5100923;27;46451;-59
2021/06/09 10:51:01;;;;;;;;;7.50;6.50;;;;;48.16;15.02;101780.31;5100944;27;45235;-58
2021/06/09 10:53:26;;;;;;;;;7.25;6.25;;;;;49.72;14.09;101782.50;5101439;27;45274;-59
2021/06/09 10:55:52;;;;;;;;;6.25;5.75;;;;;52.38;11.99;101781.97;5123573;27;45189;-60
2021/06/09 10:58:18;;;;;;;;;5.00;4.25;;;;;55.05;10.54;101774.09;5111768;27;45331;-59
2021/06/09 11:00:44;;;;;;;;;4.75;4.75;;;;;56.70;9.61;101778.38;5105097;27;45304;-59
2021/06/09 11:03:10;;;;;;;;;5.25;5.25;;;;;58.41;8.63;101774.31;5100708;27;45295;-60
2021/06/09 11:05:36;;;;;;;;;7.00;5.00;;;;;59.84;6.79;101776.03;5100657;27;45434;-60
2021/06/09 11:08:06;;;;;;;;;4.25;4.25;;;;;61.23;6.46;101775.06;5100936;27;45547;-59
2021/06/09 11:10:44;;;;;;;;;5.00;5.00;;;;;62.76;5.38;101783.13;5100744;27;45177;-60
2021/06/09 11:13:10;;;;;;;;;4.75;4.75;;;;;63.80;4.53;101779.00;5106531;27;45244;-57
2021/06/09 11:15:36;;;;;;;;;4.25;4.25;;;;;64.41;4.86;101760.72;5117583;27;45372;-58
2021/06/09 11:18:14;;;;;;;;;5.00;4.00;;;;;63.40;4.20;101763.59;5100126;27;45697;-59
2021/06/09 11:20:48;;;;;;;;;5.75;5.75;;;;;59.30;4.79;101739.50;5107059;27;45318;-60
2021/06/09 11:23:22;;;;;;;;;5.50;5.00;;;;;55.06;6.08;101721.44;5108462;27;45550;-60
2021/06/09 11:25:48;;;;;;;;;4.00;4.00;;;;;51.87;8.10;101707.09;5108228;27;45332;-60